createdAt,value
2022-11-29T00:04:05.548Z,17.67
2022-11-29T00:09:12.386Z,18.25
2022-11-29T00:14:17.375Z,18.83
2022-11-29T00:19:20.262Z,18.05
2022-11-29T00:24:24.617Z,19.20
2022-11-29T00:29:28.688Z,18.52
2022-11-29T00:34:31.465Z,20.50
2022-11-29T00:39:35.596Z,18.83
2022-11-29T00:44:38.397Z,18.98
2022-11-29T00:49:41.933Z,20.52
2022-11-29T00:54:46.259Z,20.52
2022-11-29T00:59:49.317Z,21.13
2022-11-29T01:04:52.677Z,20.95
2022-11-29T01:10:22.357Z,24.27
2022-11-29T01:15:25.220Z,23.00
2022-11-29T01:20:28.310Z,23.13
2022-11-29T01:25:32.644Z,22.25
2022-11-29T01:30:35.387Z,24.60
2022-11-29T01:35:38.127Z,23.77
2022-11-29T01:40:42.317Z,24.70
2022-11-29T01:45:46.088Z,23.65
2022-11-29T01:50:48.917Z,24.10
2022-11-29T01:55:55.139Z,22.95
2022-11-29T02:00:58.675Z,21.43
2022-11-29T02:06:02.555Z,22.95
2022-11-29T02:11:38.122Z,23.85
2022-11-29T02:16:56.551Z,20.58
2022-11-29T02:22:03.961Z,22.67
2022-11-29T02:33:00.400Z,19.30
2022-11-29T02:38:22.864Z,21.92
2022-11-29T02:43:47.460Z,17.30
2022-11-29T02:49:04.131Z,18.90
2022-11-29T02:54:16.652Z,18.13
2022-11-29T02:59:35.219Z,16.23
2022-11-29T03:04:46.371Z,16.67
2022-11-29T03:09:57.800Z,18.52
2022-11-29T03:15:11.964Z,18.48
2022-11-29T03:20:28.194Z,16.40
2022-11-29T03:25:37.865Z,17.87
2022-11-29T03:30:47.278Z,17.15
2022-11-29T03:35:58.043Z,17.42
2022-11-29T03:41:11.245Z,16.08
2022-11-29T03:46:20.228Z,14.35
2022-11-29T03:51:34.530Z,15.68
2022-11-29T03:56:39.572Z,16.05
2022-11-29T04:02:17.194Z,15.70
2022-11-29T04:07:44.035Z,15.65
2022-11-29T04:13:22.074Z,16.00
2022-11-29T04:18:43.618Z,22.10
2022-11-29T04:24:38.149Z,20.23
2022-11-29T04:29:56.308Z,17.92
2022-11-29T04:35:15.765Z,15.43
2022-11-29T04:40:32.801Z,14.70
2022-11-29T04:51:12.095Z,14.70
2022-11-29T04:56:22.442Z,15.65
2022-11-29T05:01:33.561Z,15.15
2022-11-29T05:06:41.660Z,15.75
2022-11-29T05:11:58.773Z,18.33
2022-11-29T05:22:23.946Z,19.35
2022-11-29T05:27:43.030Z,19.80
2022-11-29T05:32:58.814Z,20.10
2022-11-29T05:38:13.781Z,22.65
2022-11-29T05:43:31.125Z,22.30
2022-11-29T05:48:45.347Z,23.92
2022-11-29T05:53:56.173Z,22.52
2022-11-29T05:59:02.222Z,22.52
2022-11-29T06:04:15.307Z,26.17
2022-11-29T06:09:27.645Z,26.77
2022-11-29T06:14:53.461Z,31.88
2022-11-29T06:20:31.969Z,28.40
2022-11-29T06:25:48.590Z,28.10
2022-11-29T06:31:00.987Z,22.73
2022-11-29T06:36:15.739Z,22.85
2022-11-29T06:41:23.336Z,24.13
2022-11-29T06:46:37.151Z,19.55
2022-11-29T06:51:52.655Z,23.55
2022-11-29T06:57:07.988Z,21.35
2022-11-29T07:02:29.309Z,20.73
2022-11-29T07:07:35.133Z,21.63
2022-11-29T07:12:40.138Z,21.88
2022-11-29T07:17:59.356Z,23.48
2022-11-29T07:23:12.221Z,22.02
2022-11-29T07:28:31.171Z,17.98
2022-11-29T07:33:45.283Z,20.02
2022-11-29T07:39:01.273Z,23.92
2022-11-29T07:44:12.576Z,17.95
2022-11-29T07:49:15.582Z,17.38
2022-11-29T07:54:20.977Z,20.58
2022-11-29T07:59:25.949Z,16.65
2022-11-29T08:04:28.738Z,15.85
2022-11-29T08:09:31.986Z,17.13
2022-11-29T08:14:36.561Z,14.57
2022-11-29T08:19:39.260Z,16.83
2022-11-29T08:24:43.258Z,15.40
2022-11-29T08:29:47.749Z,14.20
2022-11-29T08:34:50.725Z,14.02
2022-11-29T08:39:53.492Z,12.52
2022-11-29T08:44:57.890Z,12.70
2022-11-29T08:50:03.761Z,12.68
2022-11-29T08:55:07.422Z,11.95
2022-11-29T09:00:13.985Z,14.50
2022-11-29T09:05:16.858Z,12.90
2022-11-29T09:10:20.924Z,14.35
2022-11-29T09:15:25.107Z,16.05
2022-11-29T09:20:27.914Z,19.67
2022-11-29T09:25:30.866Z,15.07
2022-11-29T09:30:38.081Z,15.13
2022-11-29T09:35:41.779Z,18.13
2022-11-29T09:40:53.238Z,19.33
2022-11-29T09:46:03.231Z,17.45
2022-11-29T09:51:18.763Z,18.35
2022-11-29T09:56:29.090Z,18.98
2022-11-29T10:01:38.109Z,18.27
2022-11-29T10:06:51.114Z,23.75
2022-11-29T10:12:06.601Z,18.17
2022-11-29T10:17:23.474Z,15.93
2022-11-29T10:22:40.837Z,20.98
2022-11-29T10:27:43.822Z,17.95
2022-11-29T10:32:52.614Z,17.92
2022-11-29T10:38:29.121Z,14.65
2022-11-29T10:43:22.877Z,14.90
2022-11-29T10:48:31.834Z,16.17
2022-11-29T10:53:38.354Z,16.30
2022-11-29T10:58:58.608Z,14.43
2022-11-29T11:04:05.090Z,15.07
2022-11-29T11:09:15.967Z,12.02
2022-11-29T11:14:22.080Z,13.77
2022-11-29T11:19:31.917Z,12.55
2022-11-29T11:24:41.412Z,12.23
2022-11-29T11:29:46.922Z,10.10
2022-11-29T11:34:55.312Z,11.70
2022-11-29T11:40:00.570Z,11.68
2022-11-29T11:45:06.602Z,14.38
2022-11-29T11:50:17.642Z,13.00
2022-11-29T11:55:33.200Z,12.55
2022-11-29T12:06:28.361Z,13.13
2022-11-29T12:11:41.071Z,11.90
2022-11-29T12:16:46.287Z,9.98
2022-11-29T12:21:57.528Z,10.48
2022-11-29T12:27:05.055Z,9.50
2022-11-29T12:32:24.684Z,11.05
2022-11-29T12:37:36.224Z,12.63
2022-11-29T12:42:53.873Z,11.52
2022-11-29T12:48:05.842Z,12.50
2022-11-29T12:53:27.115Z,11.48
2022-11-29T12:58:45.638Z,13.68
2022-11-29T13:03:59.178Z,11.27
2022-11-29T13:09:26.742Z,11.52
2022-11-29T13:14:44.027Z,10.93
2022-11-29T13:19:52.972Z,9.85
2022-11-29T13:25:02.364Z,10.55
2022-11-29T13:30:06.758Z,15.23
2022-11-29T13:35:21.404Z,14.27
2022-11-29T13:40:37.968Z,13.30
2022-11-29T13:45:45.477Z,16.90
2022-11-29T13:50:48.335Z,19.65
2022-11-29T13:56:00.630Z,18.35
2022-11-29T14:01:08.028Z,18.48
2022-11-29T14:06:22.161Z,20.35
2022-11-29T14:11:32.870Z,22.63
2022-11-29T14:16:40.181Z,19.65
2022-11-29T14:22:31.546Z,20.35
2022-11-29T14:27:56.225Z,16.95
2022-11-29T14:33:04.444Z,17.65
2022-11-29T14:38:15.230Z,17.63
2022-11-29T14:43:25.719Z,15.02
2022-11-29T14:48:34.015Z,16.08
2022-11-29T14:53:38.762Z,14.93
2022-11-29T14:58:42.866Z,15.50
2022-11-29T15:03:50.478Z,15.52
2022-11-29T15:09:01.704Z,15.55
2022-11-29T15:14:09.261Z,13.45
2022-11-29T15:19:31.609Z,22.25
2022-11-29T15:24:51.106Z,18.30
2022-11-29T15:29:55.571Z,18.02
2022-11-29T15:34:59.474Z,21.05
2022-11-29T15:40:04.708Z,21.10
2022-11-29T15:45:30.765Z,21.40
2022-11-29T15:50:35.402Z,29.40
2022-11-29T15:55:38.660Z,26.08
2022-11-29T16:00:44.860Z,25.02
2022-11-29T16:05:51.978Z,30.10
2022-11-29T16:10:55.094Z,29.23
2022-11-29T16:16:07.819Z,27.67
2022-11-29T16:21:24.336Z,27.50
2022-11-29T16:26:30.766Z,29.17
2022-11-29T16:31:36.610Z,30.33
2022-11-29T16:36:39.510Z,38.42
2022-11-29T16:41:42.721Z,33.28
2022-11-29T16:46:47.289Z,32.67
2022-11-29T16:51:55.976Z,36.15
2022-11-29T16:56:58.967Z,37.70
2022-11-29T17:02:03.413Z,32.70
2022-11-29T17:07:08.612Z,34.72
2022-11-29T17:12:14.496Z,32.60
2022-11-29T17:17:20.762Z,36.28
2022-11-29T17:22:23.568Z,44.40
2022-11-29T17:27:26.372Z,44.25
2022-11-29T17:32:30.630Z,42.03
2022-11-29T17:37:33.385Z,44.38
2022-11-29T17:42:36.325Z,41.58
2022-11-29T17:47:40.478Z,37.28
2022-11-29T17:52:43.217Z,42.13
2022-11-29T17:57:46.067Z,38.83
2022-11-29T18:02:50.232Z,40.95
2022-11-29T18:07:59.263Z,40.88
2022-11-29T18:13:02.273Z,37.45
2022-11-29T18:18:06.713Z,40.78
2022-11-29T18:23:09.516Z,38.53
2022-11-29T18:28:13.722Z,44.88
2022-11-29T18:33:18.331Z,42.10
2022-11-29T18:38:21.378Z,39.33
2022-11-29T18:43:24.221Z,37.15
2022-11-29T18:48:31.097Z,36.15
2022-11-29T18:53:36.111Z,36.20
2022-11-29T18:58:39.320Z,34.72
2022-11-29T19:03:45.761Z,34.13
2022-11-29T19:08:49.249Z,36.97
2022-11-29T19:13:56.153Z,34.95
2022-11-29T19:19:01.368Z,33.03
2022-11-29T19:24:07.576Z,39.35
2022-11-29T19:29:10.389Z,35.80
2022-11-29T19:34:14.904Z,37.72
2022-11-29T19:39:18.448Z,35.83
2022-11-29T19:44:23.000Z,40.28
2022-11-29T19:49:30.849Z,41.78
2022-11-29T19:54:33.645Z,37.58
2022-11-29T19:59:36.606Z,41.00
2022-11-29T20:04:40.685Z,36.40
2022-11-29T20:09:43.947Z,38.67
2022-11-29T20:14:46.855Z,42.78
2022-11-29T20:19:51.061Z,40.20
2022-11-29T20:24:54.623Z,36.72
2022-11-29T20:29:57.514Z,37.67
2022-11-29T20:35:02.677Z,37.88
2022-11-29T20:40:10.760Z,36.35
2022-11-29T20:45:15.543Z,33.55
2022-11-29T20:50:23.720Z,36.28
2022-11-29T20:55:27.103Z,32.05
2022-11-29T21:00:31.297Z,34.85
2022-11-29T21:05:38.376Z,35.42
2022-11-29T21:10:43.499Z,35.03
2022-11-29T21:15:46.905Z,37.70
2022-11-29T21:21:01.512Z,33.60
2022-11-29T21:26:11.364Z,34.58
2022-11-29T21:31:17.673Z,35.10
2022-11-29T21:36:22.536Z,37.03
2022-11-29T21:41:25.334Z,37.25
2022-11-29T21:46:28.102Z,36.38
2022-11-29T21:51:32.353Z,38.33
2022-11-29T21:56:35.206Z,36.38
2022-11-29T22:01:38.189Z,38.53
2022-11-29T22:06:42.518Z,38.28
2022-11-29T22:11:45.640Z,45.00
2022-11-29T22:16:50.204Z,41.90
2022-11-29T22:21:57.136Z,44.20
2022-11-29T22:27:00.228Z,50.50
2022-11-29T22:32:03.195Z,43.22
2022-11-29T22:37:07.340Z,41.38
2022-11-29T22:42:10.202Z,42.00
2022-11-29T22:47:13.610Z,43.88
2022-11-29T22:52:17.850Z,40.58
2022-11-29T22:57:20.614Z,38.03
2022-11-29T23:02:23.854Z,43.00
2022-11-29T23:07:28.023Z,42.40
2022-11-29T23:12:30.808Z,40.38
2022-11-29T23:17:33.520Z,40.92
2022-11-29T23:22:39.196Z,41.30
2022-11-29T23:27:41.985Z,42.58
2022-11-29T23:32:44.735Z,39.05
2022-11-29T23:37:48.905Z,40.72
2022-11-29T23:42:52.114Z,38.63
2022-11-29T23:47:54.913Z,38.22
2022-11-29T23:52:59.057Z,38.10
2022-11-29T23:58:02.188Z,43.22
